Time;durP1;ratioP1;P1;durP2;ratioP2;P2;SDS_P1;SDS_P2;PMS_P1;PMS_P2;Temp;Humidity;BMP_temperature;BMP_pressure;BME280_temperature;BME280_humidity;BME280_pressure;Samples;Min_cycle;Max_cycle;Signal;HPM_P1;HPM_P2
2021/03/06 00:00:07;;;;;;;2.90;1.80;;;18.80;22.20;;;;;;5090255;28;20177;-60
2021/03/06 00:02:33;;;;;;;2.60;1.80;;;18.70;22.20;;;;;;5090506;28;20636;-60
2021/03/06 00:05:01;;;;;;;2.17;1.97;;;18.80;22.80;;;;;;5090194;28;20158;-60
2021/03/06 00:07:27;;;;;;;2.55;2.05;;;18.70;22.20;;;;;;5090226;28;20154;-59
2021/03/06 00:09:58;;;;;;;3.15;2.00;;;18.00;21.70;;;;;;5089702;28;20490;-59
2021/03/06 00:12:27;;;;;;;2.58;2.38;;;18.70;22.20;;;;;;5090231;28;20620;-59
2021/03/06 00:14:52;;;;;;;1.75;1.63;;;18.80;22.20;;;;;;5089802;28;20247;-60
2021/03/06 00:17:18;;;;;;;1.87;1.63;;;18.70;22.20;;;;;;5090171;28;20594;-59
2021/03/06 00:19:43;;;;;;;1.83;1.70;;;18.70;22.20;;;;;;5090018;28;20158;-59
2021/03/06 00:22:09;;;;;;;3.03;1.67;;;18.70;22.20;;;;;;5090006;28;20187;-59
2021/03/06 00:24:35;;;;;;;2.53;2.30;;;18.70;22.20;;;;;;5089058;28;20181;-59
2021/03/06 00:27:00;;;;;;;2.80;2.17;;;18.70;22.20;;;;;;5075975;28;20166;-59
2021/03/06 00:29:26;;;;;;;2.13;1.93;;;18.70;22.20;;;;;;5076138;28;20166;-60
2021/03/06 00:31:52;;;;;;;3.63;1.53;;;18.70;22.20;;;;;;5076228;28;20614;-60
2021/03/06 00:34:20;;;;;;;3.00;2.10;;;18.70;22.70;;;;;;5076176;28;20514;-60
2021/03/06 00:36:46;;;;;;;2.35;1.83;;;18.70;22.20;;;;;;5076283;28;20162;-59
2021/03/06 00:39:11;;;;;;;3.13;1.80;;;18.70;22.20;;;;;;5076044;28;20170;-60
2021/03/06 00:41:37;;;;;;;2.13;2.00;;;18.70;22.20;;;;;;5076234;28;20188;-60
2021/03/06 00:44:03;;;;;;;1.87;1.73;;;18.70;22.20;;;;;;5075937;28;20188;-60
2021/03/06 00:46:29;;;;;;;3.47;2.20;;;18.70;22.20;;;;;;5076089;28;20163;-59
2021/03/06 00:48:55;;;;;;;2.28;1.95;;;18.70;22.20;;;;;;5076084;28;20162;-60
2021/03/06 00:51:21;;;;;;;2.30;2.00;;;18.70;22.20;;;;;;5074778;28;20223;-60
2021/03/06 00:53:47;;;;;;;1.95;1.75;;;18.70;22.20;;;;;;5075205;28;20186;-59
2021/03/06 00:56:12;;;;;;;2.87;1.73;;;18.70;22.20;;;;;;5075980;28;20162;-59
2021/03/06 00:58:45;;;;;;;2.40;1.93;;;18.70;22.20;;;;;;5075519;28;20200;-60
2021/03/06 01:01:13;;;;;;;1.80;1.70;;;18.70;22.20;;;;;;5075753;28;20163;-59
2021/03/06 01:03:41;;;;;;;2.10;1.85;;;18.70;22.20;;;;;;5075862;28;20163;-60
2021/03/06 01:06:07;;;;;;;2.25;1.85;;;18.70;22.20;;;;;;5075621;28;20152;-60
2021/03/06 01:08:34;;;;;;;3.00;1.70;;;18.70;22.20;;;;;;5075173;28;20161;-59
2021/03/06 01:11:01;;;;;;;1.90;1.70;;;18.60;22.70;;;;;;5075661;28;20242;-60
2021/03/06 01:13:28;;;;;;;2.08;1.80;;;18.70;22.20;;;;;;5075079;28;20213;-60
2021/03/06 01:15:59;;;;;;;2.58;1.73;;;18.70;22.20;;;;;;5075821;28;20220;-60
2021/03/06 01:18:25;;;;;;;2.75;1.90;;;18.70;22.20;;;;;;5075353;28;20162;-59
2021/03/06 01:20:50;;;;;;;1.77;1.67;;;18.60;22.10;;;;;;5074296;28;20163;-59
2021/03/06 01:23:16;;;;;;;3.80;1.70;;;18.60;22.10;;;;;;5074903;28;20189;-60
2021/03/06 01:25:42;;;;;;;1.83;1.57;;;18.70;22.20;;;;;;5075269;28;20189;-60
2021/03/06 01:28:10;;;;;;;2.77;2.00;;;18.60;22.10;;;;;;5075099;28;20407;-59
2021/03/06 01:30:35;;;;;;;2.40;2.00;;;18.60;22.10;;;;;;5075268;28;20147;-59
2021/03/06 01:33:02;;;;;;;1.97;1.77;;;18.60;22.10;;;;;;5075066;28;20600;-60
2021/03/06 01:35:28;;;;;;;2.28;1.80;;;18.60;22.10;;;;;;5075159;28;20182;-59
2021/03/06 01:37:54;;;;;;;2.37;2.17;;;18.60;22.10;;;;;;5074356;28;20159;-60
2021/03/06 01:40:32;;;;;;;1.63;1.52;;;18.60;22.10;;;;;;5074642;28;20911;-60
2021/03/06 01:43:01;;;;;;;2.05;1.85;;;18.60;22.10;;;;;;5074761;28;20146;-60
2021/03/06 01:45:29;;;;;;;2.00;1.80;;;18.60;22.10;;;;;;5074858;28;20158;-59
2021/03/06 01:47:54;;;;;;;2.08;1.70;;;18.60;22.10;;;;;;5074832;28;20150;-59
2021/03/06 01:50:29;;;;;;;2.30;2.10;;;18.60;22.10;;;;;;5074859;28;20243;-59
2021/03/06 01:52:56;;;;;;;2.30;2.10;;;18.60;22.10;;;;;;5074672;28;20150;-59
2021/03/06 01:55:23;;;;;;;2.60;2.03;;;19.90;23.00;;;;;;5074502;28;20209;-60
2021/03/06 01:57:51;;;;;;;2.85;1.92;;;18.60;22.10;;;;;;5074876;28;20215;-59
2021/03/06 02:00:18;;;;;;;2.28;1.38;;;18.60;22.10;;;;;;5074583;28;20590;-59
2021/03/06 02:02:46;;;;;;;3.55;1.90;;;18.60;22.10;;;;;;5074501;28;20308;-60
2021/03/06 02:05:12;;;;;;;2.13;1.85;;;18.60;22.70;;;;;;5074477;28;20597;-58
2021/03/06 02:07:37;;;;;;;2.47;2.22;;;18.60;22.10;;;;;;5074614;28;20163;-59
2021/03/06 02:10:04;;;;;;;2.33;1.90;;;18.60;22.10;;;;;;5073892;28;20165;-59
2021/03/06 02:12:39;;;;;;;1.80;1.70;;;18.60;22.10;;;;;;5074207;28;20238;-60
2021/03/06 02:15:41;;;;;;;3.67;1.95;;;18.60;22.10;;;;;;5074065;28;20245;-59
2021/03/06 02:18:13;;;;;;;2.00;1.63;;;18.60;22.10;;;;;;5074236;28;20154;-60
2021/03/06 02:20:55;;;;;;;2.60;1.92;;;18.60;22.10;;;;;;5074220;28;20143;-60
2021/03/06 02:23:53;;;;;;;1.58;1.48;;;18.50;22.10;;;;;;5073744;28;20193;-60
2021/03/06 02:27:03;;;;;;;2.60;1.60;;;18.50;22.10;;;;;;5074205;28;20605;-61
2021/03/06 02:29:37;;;;;;;1.98;1.75;;;18.50;22.10;;;;;;5051872;28;20179;-60
2021/03/06 02:32:09;;;;;;;1.95;1.80;;;18.50;22.10;;;;;;5070965;28;20182;-60
2021/03/06 02:34:39;;;;;;;2.00;1.65;;;18.50;22.10;;;;;;5073881;28;20268;-60
2021/03/06 02:37:09;;;;;;;2.53;2.33;;;18.50;22.10;;;;;;5074076;28;20155;-59
2021/03/06 02:39:38;;;;;;;3.67;1.95;;;18.50;22.10;;;;;;5072308;28;20181;-60
2021/03/06 02:42:08;;;;;;;1.65;1.55;;;18.50;22.10;;;;;;5073989;28;20159;-60
2021/03/06 02:44:36;;;;;;;1.70;1.60;;;18.50;22.10;;;;;;5072643;28;20170;-60
2021/03/06 02:47:02;;;;;;;2.00;1.50;;;18.60;22.10;;;;;;5073795;28;20163;-60
2021/03/06 02:49:28;;;;;;;1.80;1.70;;;18.50;22.10;;;;;;5073543;28;20245;-60
2021/03/06 02:51:56;;;;;;;2.20;2.00;;;18.50;22.10;;;;;;5073884;28;20237;-58
2021/03/06 02:54:22;;;;;;;2.05;1.67;;;18.50;22.10;;;;;;5073061;28;20236;-60
2021/03/06 02:56:48;;;;;;;1.50;1.40;;;18.50;22.10;;;;;;5073855;28;20548;-59
2021/03/06 02:59:37;;;;;;;1.63;1.30;;;18.50;22.10;;;;;;5072541;28;20155;-61
2021/03/06 03:02:24;;;;;;;1.80;1.70;;;18.50;22.10;;;;;;5073743;28;20383;-60
2021/03/06 03:05:24;;;;;;;2.35;2.10;;;18.50;22.10;;;;;;5073439;28;20233;-60
2021/03/06 03:08:17;;;;;;;2.17;1.95;;;18.50;22.10;;;;;;5073787;28;20609;-60
2021/03/06 03:10:50;;;;;;;1.70;1.60;;;18.50;22.10;;;;;;5073681;28;20151;-61
2021/03/06 03:13:39;;;;;;;1.70;1.60;;;18.50;22.10;;;;;;5073624;28;20652;-60
2021/03/06 03:16:15;;;;;;;2.15;1.92;;;18.50;22.10;;;;;;5073791;28;20208;-59
2021/03/06 03:18:47;;;;;;;1.60;1.50;;;18.50;22.10;;;;;;5073577;28;20169;-60
2021/03/06 03:21:17;;;;;;;2.22;1.85;;;18.50;22.10;;;;;;5073936;28;20159;-60
2021/03/06 03:23:56;;;;;;;2.22;1.70;;;18.50;22.10;;;;;;5072698;28;20284;-61
2021/03/06 03:26:22;;;;;;;1.92;1.80;;;18.50;22.10;;;;;;5073646;28;20162;-61
2021/03/06 03:28:50;;;;;;;1.75;1.58;;;18.40;22.00;;;;;;5073431;28;20150;-60
2021/03/06 03:31:20;;;;;;;2.10;1.88;;;18.40;22.00;;;;;;5073587;28;20190;-60
2021/03/06 03:33:46;;;;;;;1.83;1.73;;;18.40;22.00;;;;;;5073257;28;20178;-62
2021/03/06 03:36:13;;;;;;;2.20;2.00;;;18.40;22.00;;;;;;5073231;28;20241;-59
2021/03/06 03:38:39;;;;;;;1.55;1.45;;;18.40;22.00;;;;;;5072758;28;20151;-60
2021/03/06 03:41:12;;;;;;;1.60;1.45;;;18.40;22.00;;;;;;5073674;28;20158;-59
2021/03/06 03:43:43;;;;;;;1.65;1.55;;;18.40;22.00;;;;;;5073550;28;20178;-60
2021/03/06 03:46:09;;;;;;;1.67;1.58;;;18.40;22.00;;;;;;5073313;28;20230;-59
2021/03/06 03:48:37;;;;;;;1.70;1.60;;;18.40;22.00;;;;;;5073046;28;20602;-59
2021/03/06 03:51:03;;;;;;;1.80;1.67;;;18.40;22.00;;;;;;5073239;28;20197;-59
2021/03/06 03:53:29;;;;;;;1.40;1.30;;;18.40;22.00;;;;;;5072465;28;20594;-59
2021/03/06 03:56:00;;;;;;;1.73;1.63;;;18.40;22.10;;;;;;5073965;28;20229;-59
2021/03/06 03:58:29;;;;;;;1.83;1.73;;;18.40;22.00;;;;;;5073338;28;20181;-60
2021/03/06 04:00:59;;;;;;;2.67;1.88;;;18.40;22.10;;;;;;5074791;28;20613;-60
2021/03/06 04:03:29;;;;;;;1.60;1.50;;;18.40;22.00;;;;;;5075465;28;20190;-60
2021/03/06 04:05:58;;;;;;;2.10;1.90;;;18.40;22.10;;;;;;5076877;28;20237;-60
2021/03/06 04:08:24;;;;;;;1.98;1.75;;;18.40;22.10;;;;;;5076106;28;20186;-60
2021/03/06 04:10:50;;;;;;;2.27;1.97;;;18.40;22.10;;;;;;5076909;28;20197;-60
2021/03/06 04:13:16;;;;;;;1.40;1.30;;;18.40;22.10;;;;;;5076546;28;20159;-60
2021/03/06 04:15:41;;;;;;;2.00;1.80;;;18.40;22.10;;;;;;5076543;28;20217;-59
2021/03/06 04:18:07;;;;;;;2.07;1.87;;;18.40;22.10;;;;;;5076520;28;20157;-60
2021/03/06 04:20:33;;;;;;;1.38;1.27;;;18.40;22.10;;;;;;5075442;28;20176;-60
2021/03/06 04:23:00;;;;;;;2.30;1.70;;;18.40;22.10;;;;;;5075985;28;20598;-60
2021/03/06 04:25:26;;;;;;;1.80;1.50;;;18.40;22.00;;;;;;5076479;28;20410;-60
2021/03/06 04:27:52;;;;;;;1.38;1.27;;;18.40;22.10;;;;;;5076458;28;20162;-59
2021/03/06 04:30:18;;;;;;;2.20;1.63;;;18.40;22.10;;;;;;5076229;28;20162;-60
2021/03/06 04:32:44;;;;;;;1.60;1.50;;;18.40;22.10;;;;;;5076237;28;20425;-60
2021/03/06 04:35:11;;;;;;;1.87;1.50;;;18.30;22.00;;;;;;5076375;28;20198;-60
2021/03/06 04:37:37;;;;;;;1.90;1.80;;;18.30;22.00;;;;;;5076063;28;20161;-60
2021/03/06 04:40:06;;;;;;;1.92;1.42;;;18.30;22.00;;;;;;5075693;28;20249;-60
2021/03/06 04:42:32;;;;;;;1.70;1.60;;;18.40;22.10;;;;;;5076080;28;20196;-60
2021/03/06 04:44:57;;;;;;;2.27;1.87;;;18.30;22.00;;;;;;5076060;28;20158;-60
2021/03/06 04:47:27;;;;;;;2.27;2.07;;;18.30;22.00;;;;;;5076102;28;20474;-60
2021/03/06 04:49:52;;;;;;;1.60;1.50;;;18.40;22.10;;;;;;5075857;28;20627;-59
2021/03/06 04:52:18;;;;;;;2.00;1.80;;;18.30;22.00;;;;;;5075770;28;20189;-59
2021/03/06 04:54:43;;;;;;;1.70;1.60;;;18.30;22.00;;;;;;5075421;28;20225;-60
2021/03/06 04:57:11;;;;;;;2.27;1.90;;;18.30;22.00;;;;;;5075807;28;20155;-60
2021/03/06 04:59:37;;;;;;;1.50;1.30;;;18.30;22.00;;;;;;5075820;28;20154;-60
2021/03/06 05:02:03;;;;;;;2.00;1.80;;;18.30;22.60;;;;;;5076055;28;20151;-60
2021/03/06 05:04:28;;;;;;;2.47;1.60;;;18.30;22.00;;;;;;5075627;28;20173;-61
2021/03/06 05:06:54;;;;;;;2.00;1.80;;;18.30;22.00;;;;;;5075632;28;20605;-59
2021/03/06 05:09:22;;;;;;;4.03;1.60;;;18.30;22.00;;;;;;5075221;28;20657;-60
2021/03/06 05:11:48;;;;;;;2.10;1.92;;;18.30;22.00;;;;;;5075413;28;20598;-60
2021/03/06 05:14:13;;;;;;;1.57;1.47;;;18.30;22.00;;;;;;5075320;28;20226;-59
2021/03/06 05:16:39;;;;;;;1.60;1.50;;;18.30;22.00;;;;;;5075609;28;20167;-60
2021/03/06 05:19:07;;;;;;;1.80;1.63;;;18.30;22.20;;;;;;5075255;28;20507;-59
2021/03/06 05:21:33;;;;;;;2.17;1.98;;;18.30;22.00;;;;;;5075425;28;20158;-60
2021/03/06 05:24:08;;;;;;;1.93;1.70;;;18.30;22.00;;;;;;5074804;28;20220;-59
2021/03/06 05:26:33;;;;;;;2.28;1.50;;;18.30;22.00;;;;;;5075453;28;20375;-60
2021/03/06 05:28:59;;;;;;;1.43;1.33;;;18.30;22.00;;;;;;5074005;28;20182;-59
2021/03/06 05:31:25;;;;;;;1.80;1.70;;;18.30;22.00;;;;;;5075433;28;20207;-59
2021/03/06 05:33:50;;;;;;;1.23;1.10;;;18.30;22.00;;;;;;5074982;28;20728;-59
2021/03/06 05:36:18;;;;;;;1.43;1.33;;;18.30;22.00;;;;;;5075233;28;20151;-60
2021/03/06 05:38:44;;;;;;;1.98;1.88;;;18.30;22.00;;;;;;5074667;28;20151;-60
2021/03/06 05:41:10;;;;;;;1.90;1.77;;;18.20;22.00;;;;;;5075316;28;20159;-60
2021/03/06 05:43:39;;;;;;;1.50;1.40;;;18.30;22.00;;;;;;5075013;28;20162;-60
2021/03/06 05:46:08;;;;;;;1.75;1.55;;;18.30;22.00;;;;;;5075136;28;20162;-60
2021/03/06 05:48:34;;;;;;;1.67;1.58;;;18.30;22.10;;;;;;5074708;28;20194;-60
2021/03/06 05:51:02;;;;;;;1.77;1.60;;;18.20;22.00;;;;;;5074965;28;20228;-60
2021/03/06 05:53:29;;;;;;;2.17;1.95;;;18.20;22.00;;;;;;5074156;28;20169;-60
2021/03/06 05:55:58;;;;;;;2.53;1.52;;;18.30;22.00;;;;;;5074733;28;20155;-60
2021/03/06 05:58:24;;;;;;;1.90;1.75;;;18.20;22.00;;;;;;5074627;28;20500;-60
2021/03/06 06:00:52;;;;;;;1.77;1.67;;;18.30;22.00;;;;;;5074692;28;20186;-60
2021/03/06 06:03:21;;;;;;;1.60;1.50;;;18.20;22.00;;;;;;5074441;28;20463;-60
2021/03/06 06:05:47;;;;;;;2.83;1.65;;;18.20;21.90;;;;;;5074600;28;20181;-60
2021/03/06 06:08:14;;;;;;;1.52;1.42;;;18.20;21.90;;;;;;5074098;28;20166;-60
2021/03/06 06:10:40;;;;;;;1.70;1.60;;;18.20;22.00;;;;;;5074543;28;20150;-60
2021/03/06 06:13:05;;;;;;;2.47;1.60;;;18.20;21.90;;;;;;5074478;28;20549;-59
2021/03/06 06:15:33;;;;;;;1.80;1.70;;;18.20;21.90;;;;;;5074235;28;20522;-59
2021/03/06 06:17:59;;;;;;;1.58;1.48;;;18.20;21.90;;;;;;5074039;28;20192;-60
2021/03/06 06:20:25;;;;;;;1.93;1.83;;;18.20;21.90;;;;;;5072973;28;20545;-60
2021/03/06 06:23:14;;;;;;;2.60;1.70;;;18.20;21.90;;;;;;5073941;28;20159;-60
2021/03/06 06:25:40;;;;;;;2.00;1.70;;;18.20;21.90;;;;;;5074104;28;20407;-59
2021/03/06 06:28:07;;;;;;;1.60;1.50;;;18.20;21.90;;;;;;5074033;28;20165;-60
2021/03/06 06:30:33;;;;;;;1.50;1.40;;;18.20;21.90;;;;;;5074070;28;20165;-60
2021/03/06 06:33:02;;;;;;;1.60;1.48;;;18.20;21.90;;;;;;5073777;28;20163;-60
2021/03/06 06:35:37;;;;;;;1.92;1.52;;;18.20;21.90;;;;;;5073950;28;20210;-59
2021/03/06 06:38:04;;;;;;;1.80;1.60;;;18.20;21.90;;;;;;5073411;28;20241;-61
2021/03/06 06:40:33;;;;;;;2.40;1.40;;;18.20;21.90;;;;;;5074081;28;20147;-60
2021/03/06 06:42:59;;;;;;;1.77;1.67;;;18.20;21.90;;;;;;5073914;28;20151;-60
2021/03/06 06:45:36;;;;;;;2.10;1.80;;;18.30;22.00;;;;;;5073832;28;20186;-61
2021/03/06 06:48:09;;;;;;;4.18;1.58;;;18.20;21.90;;;;;;5073710;28;20196;-61
2021/03/06 06:50:35;;;;;;;1.58;1.48;;;18.20;21.90;;;;;;5073796;28;20550;-60
2021/03/06 06:53:01;;;;;;;1.63;1.53;;;18.20;21.80;;;;;;5073293;28;20311;-60
2021/03/06 06:55:41;;;;;;;1.60;1.50;;;18.20;21.90;;;;;;5072393;28;20673;-60
2021/03/06 06:58:06;;;;;;;1.60;1.50;;;18.20;21.80;;;;;;5073715;28;20186;-60
2021/03/06 07:00:34;;;;;;;1.50;1.40;;;18.20;21.90;;;;;;5073658;28;20182;-60
2021/03/06 07:03:03;;;;;;;1.80;1.70;;;18.20;21.80;;;;;;5073568;28;20502;-60
2021/03/06 07:05:33;;;;;;;1.67;1.30;;;18.20;21.80;;;;;;5073443;28;20162;-60
2021/03/06 07:08:06;;;;;;;2.00;1.77;;;18.20;21.80;;;;;;5073395;28;20155;-59
2021/03/06 07:10:36;;;;;;;1.60;1.40;;;18.20;21.80;;;;;;5073460;28;20174;-60
2021/03/06 07:13:09;;;;;;;1.55;1.45;;;18.30;21.90;;;;;;5073319;28;20163;-59
2021/03/06 07:15:36;;;;;;;1.80;1.70;;;18.20;21.70;;;;;;5073238;28;20222;-61
2021/03/06 07:18:04;;;;;;;1.58;1.48;;;18.30;21.80;;;;;;5073263;28;20146;-60
2021/03/06 07:20:35;;;;;;;1.75;1.65;;;18.20;21.70;;;;;;5072182;28;20166;-60
2021/03/06 07:23:18;;;;;;;1.52;1.42;;;18.20;21.70;;;;;;5072937;28;20151;-59
2021/03/06 07:25:44;;;;;;;1.80;1.70;;;18.20;22.00;;;;;;5073290;28;20245;-60
2021/03/06 07:28:12;;;;;;;1.70;1.60;;;18.30;21.70;;;;;;5073419;28;20159;-60
2021/03/06 07:30:38;;;;;;;1.83;1.67;;;18.30;21.70;;;;;;5073263;28;20165;-61
2021/03/06 07:33:06;;;;;;;1.43;1.33;;;18.30;21.70;;;;;;5071874;28;20153;-60
2021/03/06 07:35:35;;;;;;;1.65;1.52;;;18.30;21.70;;;;;;5074256;28;20194;-59
2021/03/06 07:38:06;;;;;;;1.60;1.50;;;18.30;21.70;;;;;;5076946;28;20159;-60
2021/03/06 07:40:37;;;;;;;1.58;1.48;;;18.30;21.70;;;;;;5077433;28;20150;-60
2021/03/06 07:43:27;;;;;;;1.60;1.50;;;18.30;21.70;;;;;;5077117;28;20147;-59
2021/03/06 07:45:57;;;;;;;1.60;1.50;;;18.30;21.70;;;;;;5077236;28;20287;-59
2021/03/06 07:48:27;;;;;;;1.77;1.30;;;18.30;21.70;;;;;;5077196;28;20200;-59
2021/03/06 07:50:54;;;;;;;1.65;1.40;;;18.30;21.60;;;;;;5077559;28;20153;-60
2021/03/06 07:53:20;;;;;;;1.63;1.40;;;18.30;21.60;;;;;;5076497;28;20526;-60
2021/03/06 07:55:47;;;;;;;1.40;1.30;;;18.30;21.60;;;;;;5077208;28;20175;-59
2021/03/06 07:58:17;;;;;;;1.55;1.20;;;18.30;21.60;;;;;;5076924;28;20173;-59
2021/03/06 08:00:42;;;;;;;1.60;1.33;;;18.30;21.60;;;;;;5076863;28;20177;-59
2021/03/06 08:03:27;;;;;;;1.67;1.40;;;18.30;21.60;;;;;;5076594;28;20151;-59
2021/03/06 08:06:14;;;;;;;1.60;1.50;;;18.30;21.60;;;;;;5076615;28;20566;-59
2021/03/06 08:08:39;;;;;;;1.63;1.52;;;18.30;21.60;;;;;;5075807;28;20182;-59
2021/03/06 08:11:12;;;;;;;1.53;1.43;;;18.30;21.50;;;;;;5076915;28;20204;-61
2021/03/06 08:13:38;;;;;;;1.45;1.35;;;18.30;21.50;;;;;;5076197;28;20246;-60
2021/03/06 08:16:22;;;;;;;1.70;1.60;;;18.30;21.40;;;;;;5076520;28;20155;-59
2021/03/06 08:18:59;;;;;;;1.45;1.35;;;18.30;21.40;;;;;;5076317;28;20150;-59
2021/03/06 08:21:48;;;;;;;1.73;1.40;;;18.30;21.40;;;;;;5075150;28;20171;-59
2021/03/06 08:24:21;;;;;;;1.45;1.35;;;18.30;21.40;;;;;;5075792;28;20178;-58
2021/03/06 08:27:10;;;;;;;1.48;1.38;;;18.30;21.40;;;;;;5076535;28;20151;-59
2021/03/06 08:29:37;;;;;;;1.52;1.42;;;18.30;21.40;;;;;;5075984;28;20185;-60
2021/03/06 08:32:18;;;;;;;2.35;1.52;;;18.30;21.40;;;;;;5076634;28;20154;-60
2021/03/06 08:35:16;;;;;;;2.42;1.75;;;18.30;21.40;;;;;;5076018;28;20182;-60
2021/03/06 08:37:41;;;;;;;3.60;1.80;;;18.30;21.40;;;;;;5076024;28;20159;-59
2021/03/06 08:40:23;;;;;;;1.77;1.67;;;18.30;21.40;;;;;;5075542;28;20558;-60
2021/03/06 08:42:51;;;;;;;1.63;1.52;;;18.40;21.40;;;;;;5075780;28;20155;-60
2021/03/06 08:45:28;;;;;;;1.20;1.10;;;18.40;21.40;;;;;;5075885;28;20196;-59
2021/03/06 08:47:58;;;;;;;1.73;1.63;;;18.40;21.30;;;;;;5075598;28;20155;-59
2021/03/06 08:50:28;;;;;;;2.40;2.05;;;18.40;21.30;;;;;;5075920;28;20154;-60
2021/03/06 08:53:01;;;;;;;1.27;1.17;;;18.40;21.30;;;;;;5076009;28;20173;-60
2021/03/06 08:55:41;;;;;;;1.80;1.70;;;18.40;21.20;;;;;;5075715;28;20186;-59
2021/03/06 08:58:18;;;;;;;1.45;1.35;;;18.50;21.20;;;;;;5075715;28;20154;-59
2021/03/06 09:01:05;;;;;;;2.70;1.88;;;18.60;21.00;;;;;;5075747;28;20154;-60
2021/03/06 09:03:31;;;;;;;2.33;1.88;;;18.70;20.90;;;;;;5075324;28;20220;-59
2021/03/06 09:06:00;;;;;;;1.30;1.20;;;18.80;20.70;;;;;;5075712;28;20159;-59
2021/03/06 09:08:27;;;;;;;1.75;1.65;;;18.90;20.70;;;;;;5075301;28;20154;-60
2021/03/06 09:10:59;;;;;;;1.20;1.10;;;19.10;20.70;;;;;;5075779;28;20238;-59
2021/03/06 09:13:28;;;;;;;1.40;1.30;;;19.40;20.50;;;;;;5074919;28;20194;-59
2021/03/06 09:16:02;;;;;;;2.25;1.60;;;19.70;20.60;;;;;;5075541;28;20617;-59
2021/03/06 09:18:38;;;;;;;1.70;1.60;;;20.10;20.10;;;;;;5075558;28;20163;-59
2021/03/06 09:21:16;;;;;;;1.40;1.30;;;20.40;19.50;;;;;;5075501;28;20166;-59
2021/03/06 09:23:46;;;;;;;2.10;1.52;;;20.70;19.10;;;;;;5074953;28;20238;-58
2021/03/06 09:26:27;;;;;;;1.40;1.30;;;21.20;17.80;;;;;;5075166;28;20158;-58
2021/03/06 09:28:55;;;;;;;1.33;1.23;;;21.20;18.20;;;;;;5075182;28;20617;-58
2021/03/06 09:31:24;;;;;;;2.03;1.67;;;21.40;17.90;;;;;;5075283;28;20636;-58
2021/03/06 09:33:50;;;;;;;1.42;1.33;;;21.50;17.60;;;;;;5075074;28;20625;-58
2021/03/06 09:36:21;;;;;;;1.57;1.40;;;21.70;17.40;;;;;;5075152;28;20201;-58
2021/03/06 09:38:52;;;;;;;2.72;1.73;;;21.80;17.50;;;;;;5074931;28;20186;-58
2021/03/06 09:41:23;;;;;;;2.45;2.00;;;21.90;17.50;;;;;;5074902;28;20147;-58
2021/03/06 09:43:51;;;;;;;1.50;1.40;;;22.10;17.30;;;;;;5074963;28;20622;-59
2021/03/06 09:46:20;;;;;;;1.80;1.50;;;22.20;17.10;;;;;;5074801;28;20626;-59
2021/03/06 09:49:07;;;;;;;1.90;1.48;;;22.20;16.90;;;;;;5074618;28;20159;-59
2021/03/06 09:51:50;;;;;;;2.65;1.40;;;22.30;16.80;;;;;;5074752;28;20610;-59
2021/03/06 09:54:16;;;;;;;1.60;1.50;;;22.40;16.80;;;;;;5074112;28;20182;-59
2021/03/06 09:56:52;;;;;;;1.45;1.33;;;22.50;16.70;;;;;;5074522;28;20167;-60
2021/03/06 09:59:18;;;;;;;1.48;1.38;;;22.50;16.60;;;;;;5073725;28;20197;-59
2021/03/06 10:01:46;;;;;;;1.50;1.40;;;22.60;16.60;;;;;;5074773;28;20173;-60
2021/03/06 10:04:13;;;;;;;3.70;2.08;;;22.70;16.50;;;;;;5074521;28;20170;-59
2021/03/06 10:06:50;;;;;;;2.22;1.77;;;22.70;16.50;;;;;;5074486;28;20155;-59
2021/03/06 10:09:18;;;;;;;2.00;1.80;;;22.80;16.40;;;;;;5073655;28;20249;-59
2021/03/06 10:11:47;;;;;;;1.88;1.77;;;22.80;16.30;;;;;;5074180;28;20197;-60
2021/03/06 10:14:17;;;;;;;1.75;1.65;;;22.90;16.30;;;;;;5073852;28;20221;-58
2021/03/06 10:16:48;;;;;;;1.65;1.50;;;23.00;16.20;;;;;;5074226;28;20151;-60
2021/03/06 10:19:17;;;;;;;2.03;1.80;;;23.10;16.30;;;;;;5074128;28;20149;-59
2021/03/06 10:22:04;;;;;;;2.10;1.30;;;23.20;16.20;;;;;;5072771;28;20177;-60
2021/03/06 10:24:31;;;;;;;1.73;1.63;;;23.20;16.00;;;;;;5073260;28;20201;-59
2021/03/06 10:26:59;;;;;;;1.85;1.50;;;23.30;16.00;;;;;;5074116;28;20194;-60
2021/03/06 10:29:26;;;;;;;1.70;1.50;;;23.40;16.00;;;;;;5072818;28;20238;-60
2021/03/06 10:32:12;;;;;;;2.00;1.80;;;23.50;15.90;;;;;;5074029;28;20235;-60
2021/03/06 10:34:37;;;;;;;1.30;1.20;;;23.50;15.80;;;;;;5073608;28;20190;-60
2021/03/06 10:37:08;;;;;;;1.57;1.33;;;23.60;15.80;;;;;;5073589;28;20513;-60
2021/03/06 10:39:48;;;;;;;2.17;1.40;;;23.70;15.70;;;;;;5072836;28;20673;-58
2021/03/06 10:42:14;;;;;;;2.22;2.03;;;23.80;15.70;;;;;;5073630;28;20397;-59
2021/03/06 10:44:41;;;;;;;2.63;1.63;;;23.90;15.60;;;;;;5073656;28;20155;-60
2021/03/06 10:47:07;;;;;;;1.92;1.70;;;23.90;15.50;;;;;;5073758;28;20161;-60
2021/03/06 10:49:50;;;;;;;1.73;1.57;;;24.00;15.50;;;;;;5073597;28;20151;-60
2021/03/06 10:52:27;;;;;;;2.30;1.83;;;24.10;15.40;;;;;;5073745;28;20161;-60
2021/03/06 10:54:56;;;;;;;2.30;1.75;;;24.20;15.20;;;;;;5073067;28;20453;-59
2021/03/06 10:57:22;;;;;;;1.65;1.38;;;24.20;15.10;;;;;;5073672;28;20336;-60
2021/03/06 10:59:48;;;;;;;1.87;1.27;;;24.30;15.10;;;;;;5073860;28;20237;-60
2021/03/06 11:02:28;;;;;;;1.77;1.60;;;24.40;15.10;;;;;;5073707;28;20799;-60
2021/03/06 11:05:13;;;;;;;1.13;1.02;;;24.40;15.10;;;;;;5073258;28;20168;-59
2021/03/06 11:07:38;;;;;;;1.70;1.37;;;24.50;15.80;;;;;;5073259;28;20157;-60
2021/03/06 11:10:05;;;;;;;2.47;1.90;;;24.60;15.30;;;;;;5072671;28;20405;-60
2021/03/06 11:12:31;;;;;;;1.50;1.40;;;24.60;15.20;;;;;;5073305;28;20173;-59
2021/03/06 11:15:09;;;;;;;2.22;1.70;;;24.70;15.00;;;;;;5073208;28;20468;-59
2021/03/06 11:17:35;;;;;;;2.00;1.77;;;24.80;15.00;;;;;;5073330;28;20161;-60
2021/03/06 11:20:02;;;;;;;2.30;2.00;;;24.90;14.90;;;;;;5072843;28;20162;-60
2021/03/06 11:22:28;;;;;;;2.25;1.60;;;25.00;14.80;;;;;;5072893;28;20424;-59
2021/03/06 11:24:54;;;;;;;1.50;1.30;;;25.00;14.70;;;;;;5072431;28;20213;-59
2021/03/06 11:27:19;;;;;;;1.77;1.67;;;25.10;14.60;;;;;;5072860;28;20854;-59
2021/03/06 11:29:45;;;;;;;2.57;1.53;;;25.20;14.50;;;;;;5073130;28;20163;-59
2021/03/06 11:32:11;;;;;;;1.83;1.40;;;;;;;;;;5072938;28;20606;-59
2021/03/06 11:34:37;;;;;;;1.80;1.70;;;25.30;13.90;;;;;;5073030;28;20232;-59
2021/03/06 11:37:03;;;;;;;2.20;2.00;;;25.40;14.30;;;;;;5073131;28;20400;-59
2021/03/06 11:39:28;;;;;;;1.73;1.63;;;25.50;14.20;;;;;;5072641;28;20162;-59
2021/03/06 11:41:54;;;;;;;2.23;2.03;;;25.50;14.10;;;;;;5072856;28;20165;-57
2021/03/06 11:44:20;;;;;;;2.13;1.73;;;25.60;14.10;;;;;;5071938;28;20174;-59
2021/03/06 11:46:48;;;;;;;3.00;2.10;;;25.60;14.00;;;;;;5073419;28;20679;-59
2021/03/06 11:49:13;;;;;;;2.80;2.20;;;25.70;13.90;;;;;;5073212;28;20155;-59
2021/03/06 11:51:39;;;;;;;2.17;1.97;;;25.70;13.90;;;;;;5072980;28;20762;-59
2021/03/06 11:54:09;;;;;;;2.33;2.13;;;25.80;13.80;;;;;;5072489;28;20189;-59
2021/03/06 11:56:35;;;;;;;2.00;1.80;;;25.80;14.30;;;;;;5072807;28;20155;-60
2021/03/06 11:59:01;;;;;;;2.83;2.07;;;25.80;13.70;;;;;;5071773;28;20415;-59
2021/03/06 12:01:27;;;;;;;2.10;1.90;;;25.90;13.60;;;;;;5072889;28;20182;-59
2021/03/06 12:04:02;;;;;;;3.17;2.57;;;26.00;13.50;;;;;;5072651;28;20380;-59
2021/03/06 12:06:27;;;;;;;3.03;2.33;;;26.00;13.40;;;;;;5072676;28;20154;-59
2021/03/06 12:08:53;;;;;;;2.53;2.33;;;26.10;13.40;;;;;;5072474;28;20386;-59
2021/03/06 12:11:19;;;;;;;2.93;2.50;;;26.20;13.40;;;;;;5072834;28;20526;-59
2021/03/06 12:13:50;;;;;;;2.53;2.33;;;26.20;13.30;;;;;;5072616;28;20550;-58
2021/03/06 12:16:18;;;;;;;2.73;2.53;;;26.30;13.20;;;;;;5072586;28;20163;-60
2021/03/06 12:18:43;;;;;;;3.23;2.50;;;26.30;13.20;;;;;;5072351;28;20376;-60
2021/03/06 12:21:09;;;;;;;2.20;2.00;;;26.40;13.10;;;;;;5073114;28;20906;-59
2021/03/06 12:23:37;;;;;;;2.80;2.60;;;26.40;13.00;;;;;;5075775;28;20165;-60
2021/03/06 12:26:03;;;;;;;2.63;2.43;;;26.20;12.70;;;;;;5076551;28;20186;-60
2021/03/06 12:28:28;;;;;;;3.10;2.23;;;26.60;13.30;;;;;;5076444;28;20485;-59
2021/03/06 12:30:57;;;;;;;2.83;2.57;;;26.70;12.60;;;;;;5076554;28;20605;-59
2021/03/06 12:33:22;;;;;;;2.67;2.47;;;26.80;12.30;;;;;;5076211;28;20159;-60
2021/03/06 12:35:48;;;;;;;2.47;2.27;;;26.80;12.30;;;;;;5076011;28;20756;-59
2021/03/06 12:38:14;;;;;;;2.00;1.90;;;27.00;12.40;;;;;;5075795;28;20159;-59
2021/03/06 12:40:39;;;;;;;3.53;2.77;;;27.00;12.00;;;;;;5076108;28;20166;-60
2021/03/06 12:43:07;;;;;;;2.73;2.40;;;27.10;12.50;;;;;;5074859;28;20158;-59
2021/03/06 12:45:33;;;;;;;2.93;2.73;;;27.20;12.10;;;;;;5076106;28;20170;-59
2021/03/06 12:47:59;;;;;;;2.53;2.33;;;27.30;12.50;;;;;;5074649;28;20445;-60
2021/03/06 12:50:28;;;;;;;2.60;2.07;;;27.40;11.80;;;;;;5076193;28;20433;-59
2021/03/06 12:52:56;;;;;;;2.60;2.30;;;27.50;11.50;;;;;;5075765;28;20395;-59
2021/03/06 12:55:22;;;;;;;2.37;2.20;;;27.60;11.40;;;;;;5075792;28;20464;-59
2021/03/06 12:57:47;;;;;;;4.73;2.93;;;27.80;11.30;;;;;;5076112;28;20421;-59
2021/03/06 13:00:14;;;;;;;3.00;2.80;;;27.90;11.10;;;;;;5075680;28;20892;-59